Time;durP1;ratioP1;P1;durP2;ratioP2;P2;SDS_P1;SDS_P2;PMS_P1;PMS_P2;Temp;Humidity;BMP_temperature;BMP_pressure;BME280_temperature;BME280_humidity;BME280_pressure;Samples;Min_cycle;Max_cycle;Signal;HPM_P1;HPM_P2
2023/08/03 00:08:31;;;;;;;4.70;2.00;;;;;;;18.63;77.03;98668.10;128082;1283;128962;-67
2023/08/03 00:12:57;;;;;;;4.20;2.10;;;;;;;18.61;77.38;98670.34;127984;1279;115490;-67
2023/08/03 00:16:31;;;;;;;2.80;2.40;;;;;;;18.58;77.72;98641.05;123769;1289;5544858;-67
2023/08/03 00:20:11;;;;;;;;;;;;;;;;;;;;;
2023/08/03 00:24:15;;;;;;;2.90;2.30;;;;;;;18.57;78.30;98662.83;127753;1287;114912;-67
2023/08/03 00:32:10;;;;;;;3.30;2.10;;;;;;;18.58;78.84;98625.65;126825;1296;116687;-67
2023/08/03 00:36:01;;;;;;;4.80;1.90;;;;;;;18.60;79.28;98590.73;126041;1318;114958;-66
2023/08/03 00:39:51;;;;;;;;;;;;;;;;;;;;;
2023/08/03 00:42:58;;;;;;;4.10;2.20;;;;;;;18.66;79.69;98569.64;125275;1307;114892;-67
2023/08/03 00:46:26;;;;;;;5.40;2.40;;;;;;;18.68;79.90;98600.98;126019;1315;129661;-67
2023/08/03 00:49:44;;;;;;;;;;;;;;;;;;;;;
2023/08/03 00:53:47;;;;;;;4.70;2.10;;;;;;;18.74;80.21;98637.95;126066;1301;115369;-67
2023/08/03 00:57:35;;;;;;;2.70;2.10;;;;;;;18.77;80.51;98619.54;125983;1298;114938;-67
2023/08/03 01:01:20;;;;;;;;;;;;;;;;;;;;;
2023/08/03 01:05:02;;;;;;;;;;;;;;;18.84;81.15;98614.46;126506;1298;129739;-67
2023/08/03 01:09:04;;;;;;;4.30;1.90;;;;;;;18.87;81.27;98593.52;126702;1310;116395;-67
2023/08/03 01:17:01;;;;;;;4.60;2.50;;;;;;;18.90;81.16;98608.40;128099;1287;115715;-66
2023/08/03 01:21:03;;;;;;;2.80;1.70;;;;;;;18.91;81.25;98613.15;127631;1286;115010;-67
2023/08/03 01:24:48;;;;;;;5.20;2.20;;;;;;;18.90;81.22;98594.43;127652;1304;128878;-66
2023/08/03 01:28:41;;;;;;;2.20;1.90;;;;;;;18.88;81.32;98607.77;127268;1289;114992;-67
2023/08/03 01:32:28;;;;;;;;;;;;;;;;;;;;;
2023/08/03 01:36:26;;;;;;;3.40;2.30;;;;;;;18.87;81.58;98606.88;126016;1298;114920;-68
2023/08/03 01:40:28;;;;;;;2.60;2.40;;;;;;;18.89;81.60;98616.83;126129;1296;636238;-67
2023/08/03 01:44:03;;;;;;;5.90;2.50;;;;;;;18.88;81.68;98628.48;128964;1269;127926;-66
2023/08/03 01:47:40;;;;;;;;;;;;;;;18.87;81.84;98607.05;129281;1270;114727;-67
2023/08/03 01:51:40;;;;;;;;;;;;;;;;;;;;;
2023/08/03 01:59:46;;;;;;;2.30;2.10;;;;;;;18.80;82.25;98598.64;127582;1287;114947;-67
2023/08/03 02:03:49;;;;;;;2.40;2.00;;;;;;;18.78;82.36;98605.20;126210;1298;114922;-67
2023/08/03 02:11:58;;;;;;;2.80;2.20;;;;;;;18.75;82.57;98607.52;125659;1321;116570;-67
2023/08/03 02:15:48;;;;;;;;;;;;;;;;;;;;;
2023/08/03 02:19:40;;;;;;;6.60;3.20;;;;;;;18.75;82.92;98606.36;124359;1311;114849;-65
2023/08/03 02:23:25;;;;;;;3.50;3.00;;;;;;;18.76;82.91;98613.00;124320;1310;115421;-65
2023/08/03 02:31:33;;;;;;;4.50;3.30;;;;;;;18.79;82.98;98630.33;126579;1289;635946;-67
2023/08/03 02:35:39;;;;;;;6.30;3.00;;;;;;;18.79;83.08;98640.90;129374;1289;127837;-67
2023/08/03 02:39:39;;;;;;;2.90;2.40;;;;;;;18.79;83.19;98630.89;128672;1297;115459;-67
2023/08/03 02:43:43;;;;;;;4.60;2.50;;;;;;;18.80;83.24;98631.75;125088;1303;5502059;-68
2023/08/03 02:51:25;;;;;;;;;;;;;;;;;;;;;
2023/08/03 02:55:19;;;;;;;;;;;;;;;;;;;;;
2023/08/03 02:59:21;;;;;;;2.60;2.20;;;;;;;18.81;83.51;98647.55;124104;1316;115435;-65
2023/08/03 03:07:39;;;;;;;4.30;2.80;;;;;;;18.83;83.50;98667.73;126023;1305;635933;-68
2023/08/03 03:11:42;;;;;;;2.90;2.40;;;;;;;18.81;83.62;98674.30;128612;1283;127503;-66
2023/08/03 03:15:27;;;;;;;;;;;;;;;;;;;;;
2023/08/03 03:23:22;;;;;;;2.80;2.20;;;;;;;18.77;83.50;98703.00;122295;1317;114980;-66
2023/08/03 03:27:23;;;;;;;3.40;2.40;;;;;;;18.75;83.41;98716.42;125852;1312;114951;-66
2023/08/03 03:30:45;;;;;;;3.00;2.20;;;;;;;18.74;83.38;98728.80;125986;1305;114843;-67
2023/08/03 03:35:03;;;;;;;1.80;1.70;;;;;;;18.74;83.17;98725.01;125795;1301;129746;-66
2023/08/03 03:38:36;;;;;;;2.60;2.40;;;;;;;18.73;83.17;98707.23;125667;1309;115352;-66
2023/08/03 03:42:02;;;;;;;4.10;2.60;;;;;;;18.72;83.10;98685.56;125968;1301;115012;-67
2023/08/03 03:46:04;;;;;;;5.20;2.50;;;;;;;18.72;82.90;98682.74;126133;1301;114945;-66
2023/08/03 03:49:56;;;;;;;;;;;;;;;;;;;;;
2023/08/03 03:53:58;;;;;;;3.20;2.40;;;;;;;18.72;82.90;98669.31;125435;1307;128259;-64
2023/08/03 03:57:42;;;;;;;7.30;2.80;;;;;;;18.73;82.92;98702.81;125082;1307;114899;-68
2023/08/03 04:01:43;;;;;;;3.40;2.70;;;;;;;18.74;82.78;98721.71;125921;1316;114980;-67
2023/08/03 04:05:45;;;;;;;4.00;3.20;;;;;;;18.76;82.76;98736.14;126053;1298;114920;-65
2023/08/03 04:22:15;;;;;;;4.30;2.90;;;;;;;18.91;82.50;98717.45;127597;1304;128700;-66
2023/08/03 04:34:26;;;;;;;3.60;2.60;;;;;;;18.94;82.17;98774.88;125017;1310;115061;-67
2023/08/03 04:38:28;;;;;;;5.00;2.00;;;;;;;18.95;82.04;98742.04;124353;1316;114840;-66
2023/08/03 04:42:12;;;;;;;;;;;;;;;;;;;;;
2023/08/03 04:50:06;;;;;;;;;;;;;;;;;;;;;
2023/08/03 04:54:13;;;;;;;4.10;2.40;;;;;;;18.99;81.89;98774.06;128517;1290;128841;-66
2023/08/03 05:02:17;;;;;;;2.70;2.10;;;;;;;19.20;82.40;98786.57;127968;1284;114883;-66
2023/08/03 05:06:09;;;;;;;3.60;2.80;;;;;;;19.65;82.72;98747.54;122850;1293;114929;-66
2023/08/03 05:10:11;;;;;;;7.70;2.60;;;;;;;19.88;81.74;98772.00;125825;1317;114949;-67
2023/08/03 05:14:05;;;;;;;4.70;2.70;;;;;;;19.97;81.11;98757.78;125521;1305;114984;-66
2023/08/03 05:30:35;;;;;;;4.80;2.50;;;;;;;19.81;79.99;98766.02;125857;1299;636603;-67
2023/08/03 05:34:28;;;;;;;4.30;2.50;;;;;;;19.80;79.92;98745.94;128663;1272;129317;-68
2023/08/03 05:38:30;;;;;;;2.30;2.10;;;;;;;19.79;79.72;98729.20;128448;1274;115285;-66
2023/08/03 05:50:42;;;;;;;2.80;1.90;;;;;;;20.01;78.94;98746.21;127579;1286;114918;-67
2023/08/03 05:54:45;;;;;;;5.10;2.30;;;;;;;20.17;78.38;98764.77;126744;1292;115384;-66
2023/08/03 06:03:01;;;;;;;;;;;;;;;;;;;;;
2023/08/03 06:11:12;;;;;;;3.50;2.00;;;;;;;21.14;76.64;98809.83;125757;1320;114994;-66
2023/08/03 06:19:27;;;;;;;5.30;2.30;;;;;;;21.34;75.11;98829.27;123633;1338;129892;-67
2023/08/03 06:27:30;;;;;;;4.90;1.70;;;;;;;21.52;74.20;98821.16;126140;1295;635774;-66
2023/08/03 06:31:33;;;;;;;3.10;1.60;;;;;;;21.64;73.66;98822.51;128827;1277;128780;-66
2023/08/03 06:35:29;;;;;;;5.00;2.00;;;;;;;21.73;72.99;98843.02;127572;1283;115307;-65
2023/08/03 06:39:36;;;;;;;3.70;1.90;;;;;;;21.85;72.76;98839.02;128813;1272;114844;-68
2023/08/03 06:43:40;;;;;;;6.70;2.00;;;;;;;21.94;72.32;98822.86;124206;1283;114959;-66
2023/08/03 06:47:42;;;;;;;3.90;1.60;;;;;;;21.90;71.72;98826.13;127243;1305;114875;-68
2023/08/03 06:51:43;;;;;;;4.10;2.00;;;;;;;21.98;71.57;98818.05;126542;1289;115164;-67
2023/08/03 06:55:48;;;;;;;3.50;1.70;;;;;;;22.09;71.32;98818.73;125843;1295;129674;-66
2023/08/03 06:59:38;;;;;;;4.90;2.20;;;;;;;22.06;70.10;98830.69;125518;1307;114871;-67
2023/08/03 07:07:16;;;;;;;;;;;;;;;;;;;;;
2023/08/03 07:11:21;;;;;;;2.50;1.80;;;;;;;21.91;69.26;98828.94;128236;1281;128847;-65
2023/08/03 07:15:14;;;;;;;5.70;1.90;;;;;;;21.86;68.71;98823.84;127032;1291;115222;-66
2023/08/03 07:19:18;;;;;;;5.10;1.70;;;;;;;21.78;68.49;98827.52;126501;1293;114942;-66
2023/08/03 07:22:26;;;;;;;4.80;1.80;;;;;;;21.74;68.55;98809.71;125088;1287;114941;-67
2023/08/03 07:30:31;;;;;;;14.90;2.40;;;;;;;21.80;68.58;98827.89;125767;1304;115026;-67
2023/08/03 07:34:32;;;;;;;4.90;1.80;;;;;;;21.92;68.45;98805.64;125065;1310;128647;-67
2023/08/03 07:38:34;;;;;;;5.70;1.70;;;;;;;22.12;68.14;98813.10;124908;1309;115328;-65
2023/08/03 07:42:36;;;;;;;5.80;1.60;;;;;;;22.19;67.17;98810.55;124237;1313;115050;-68
2023/08/03 07:46:41;;;;;;;7.10;1.70;;;;;;;22.22;66.57;98806.91;123582;1336;114944;-65
2023/08/03 07:50:42;;;;;;;2.70;1.50;;;;;;;22.24;66.57;98773.18;128030;1315;112835;-66
2023/08/03 07:54:26;;;;;;;5.60;2.00;;;;;;;22.42;66.35;98818.59;129013;1306;128141;-66
2023/08/03 07:58:27;;;;;;;4.80;1.70;;;;;;;22.77;66.05;98844.25;129126;1306;112697;-66
2023/08/03 08:06:57;;;;;;;5.70;1.70;;;;;;;24.74;65.39;98857.98;125979;1297;635718;-65
2023/08/03 08:11:00;;;;;;;4.90;1.50;;;;;;;25.64;62.75;98853.39;128913;1275;119230;-66
2023/08/03 08:15:03;;;;;;;6.20;1.90;;;;;;;26.41;61.55;98838.93;127981;1292;115340;-65
2023/08/03 08:18:58;;;;;;;4.20;1.50;;;;;;;26.60;59.69;98837.79;123341;1288;5458953;-66
2023/08/03 08:23:00;;;;;;;2.60;1.20;;;;;;;26.53;58.90;98849.90;126732;1295;114881;-66
2023/08/03 08:27:01;;;;;;;;;;;;;;;;;;;;;
2023/08/03 08:30:24;;;;;;;6.20;1.50;;;;;;;26.09;56.46;98856.90;125159;1317;121492;-66
2023/08/03 08:34:15;;;;;;;;;;;;;;;;;;;;;
2023/08/03 08:38:18;;;;;;;6.60;2.30;;;;;;;25.67;55.93;98849.08;126185;1297;635762;-67
2023/08/03 08:42:10;;;;;;;6.20;1.70;;;;;;;25.54;55.64;98850.13;128454;1290;120126;-66
2023/08/03 08:45:53;;;;;;;2.90;1.90;;;;;;;25.47;55.87;98848.73;128685;1280;114866;-65
2023/08/03 08:49:58;;;;;;;3.30;1.50;;;;;;;25.42;55.61;98846.08;128493;1274;114803;-65
2023/08/03 08:54:00;;;;;;;5.00;1.70;;;;;;;25.35;55.51;98860.48;124122;1284;114806;-67
2023/08/03 08:58:02;;;;;;;5.40;1.70;;;;;;;25.56;56.34;98870.16;127797;1301;114944;-65
2023/08/03 09:01:22;;;;;;;3.90;1.60;;;;;;;26.05;55.85;98859.50;127906;1287;115359;-65
2023/08/03 09:05:06;;;;;;;;;;;;;;;;;;;;;
2023/08/03 09:16:48;;;;;;;6.30;1.80;;;;;;;27.33;53.53;98858.25;126525;1295;115213;-66
2023/08/03 09:20:42;;;;;;;4.00;2.00;;;;;;;27.24;53.05;98863.01;126681;1299;114856;-65
2023/08/03 09:24:59;;;;;;;5.90;1.60;;;;;;;27.17;51.89;98857.05;125728;1312;120992;-66
2023/08/03 09:28:23;;;;;;;3.60;1.70;;;;;;;27.16;51.99;98859.20;124118;1326;114840;-66
2023/08/03 09:31:48;;;;;;;;;;;;;;;;;;;;;
2023/08/03 09:35:39;;;;;;;3.90;1.80;;;;;;;27.51;51.08;98873.39;124847;1311;115260;-67
2023/08/03 09:39:44;;;;;;;4.00;1.40;;;;;;;27.60;51.23;98876.64;124695;1312;114923;-67
2023/08/03 09:47:32;;;;;;;5.80;2.00;;;;;;;28.58;51.12;98878.39;126115;1292;636367;-67
2023/08/03 09:51:34;;;;;;;3.90;1.80;;;;;;;28.93;50.35;98869.77;129004;1278;119503;-66
2023/08/03 09:55:47;;;;;;;2.50;1.70;;;;;;;29.16;49.09;98863.31;128786;1278;114820;-67
2023/08/03 10:00:19;;;;;;;6.40;1.40;;;;;;;29.27;49.22;98866.64;127363;1283;114928;-67
2023/08/03 10:07:46;;;;;;;8.70;2.10;;;;;;;29.33;48.11;98872.62;125329;1308;114893;-68
2023/08/03 10:11:47;;;;;;;4.40;1.70;;;;;;;29.41;47.70;98876.81;125280;1308;114841;-67
2023/08/03 10:14:53;;;;;;;3.20;1.50;;;;;;;29.29;46.91;98885.66;125371;1307;121336;-67
2023/08/03 10:22:57;;;;;;;4.10;1.50;;;;;;;28.71;46.18;98863.30;125320;1303;114875;-67
2023/08/03 10:30:50;;;;;;;;;;;;;;;;;;;;;
2023/08/03 10:33:56;;;;;;;4.90;1.90;;;;;;;27.87;45.81;98872.36;129209;1266;118908;-67
2023/08/03 10:37:34;;;;;;;;;;;;;;;;;;;;;
2023/08/03 10:41:36;;;;;;;;;;;;;;;;;;;;;
2023/08/03 10:45:40;;;;;;;4.40;1.40;;;;;;;27.78;45.27;98863.97;124809;1276;5427915;-67
2023/08/03 10:49:40;;;;;;;;;;;;;;;;;;;;;
2023/08/03 10:53:04;;;;;;;;;;;;;;;;;;;;;
2023/08/03 10:57:07;;;;;;;;;;;;;;;;;;;;;
2023/08/03 11:01:11;;;;;;;3.20;1.10;;;;;;;28.20;43.95;98875.85;127018;1286;114938;-66
2023/08/03 11:05:12;;;;;;;3.90;1.10;;;;;;;28.06;43.61;98876.44;126260;1297;114873;-67
2023/08/03 11:16:49;;;;;;;;;;;;;;;;;;;;;
2023/08/03 11:24:33;;;;;;;;;;;;;;;;;;;;;
2023/08/03 11:27:52;;;;;;;2.00;1.00;;;;;;;28.35;42.78;98896.95;124282;1314;115076;-66
2023/08/03 11:31:33;;;;;;;4.00;1.50;;;;;;;28.41;42.51;98895.52;124204;1316;114999;-66
2023/08/03 11:34:39;;;;;;;3.50;0.90;;;;;;;28.49;42.28;98888.52;124156;1333;121370;-66
2023/08/03 11:38:20;;;;;;;3.90;1.40;;;;;;;28.59;42.33;98890.92;125465;1307;114860;-67
2023/08/03 11:41:37;;;;;;;4.80;1.10;;;;;;;28.62;41.99;98893.63;125950;1316;114776;-66
2023/08/03 11:45:19;;;;;;;1.80;1.00;;;;;;;28.70;42.31;98899.35;126084;1289;114910;-67
2023/08/03 11:49:08;;;;;;;8.10;2.00;;;;;;;28.73;42.00;98898.31;126568;1293;114856;-67
2023/08/03 11:53:20;;;;;;;5.80;1.40;;;;;;;28.64;41.71;98897.95;126147;1298;119020;-67
2023/08/03 11:57:00;;;;;;;;;;;;;;;;;;;;;
2023/08/03 12:05:05;;;;;;;2.50;1.00;;;;;;;28.25;41.32;98895.46;126877;1286;115211;-67
2023/08/03 12:12:45;;;;;;;4.00;1.00;;;;;;;28.10;42.28;98890.17;125804;1301;119258;-67
2023/08/03 12:15:53;;;;;;;6.90;1.30;;;;;;;28.14;41.85;98887.06;125890;1301;114990;-66
2023/08/03 12:20:10;;;;;;;5.10;1.00;;;;;;;28.06;41.81;98886.85;125958;1298;114875;-66
2023/08/03 12:23:37;;;;;;;4.40;1.50;;;;;;;27.99;42.24;98880.72;125637;1307;114838;-67
2023/08/03 12:26:50;;;;;;;7.30;2.40;;;;;;;27.92;42.47;98884.46;125414;1307;115024;-67
2023/08/03 12:30:42;;;;;;;3.10;1.60;;;;;;;27.85;42.63;98887.70;125684;1295;122060;-66
2023/08/03 12:38:45;;;;;;;2.30;1.60;;;;;;;27.49;42.47;98888.72;125936;1298;114900;-66
2023/08/03 12:42:08;;;;;;;4.60;1.00;;;;;;;27.35;42.67;98890.27;125958;1317;114874;-66
2023/08/03 12:45:44;;;;;;;3.20;1.10;;;;;;;27.27;42.98;98888.09;126242;1301;114981;-67
2023/08/03 12:49:19;;;;;;;2.80;1.40;;;;;;;27.21;43.08;98881.05;126491;1284;119479;-67
2023/08/03 12:56:53;;;;;;;;;;;;;;;;;;;;;
2023/08/03 13:00:55;;;;;;;1.70;0.90;;;;;;;27.39;43.27;98884.15;127468;1283;114925;-67
2023/08/03 13:04:57;;;;;;;5.80;1.40;;;;;;;27.53;43.17;98879.35;127530;1286;115028;-67
2023/08/03 13:08:41;;;;;;;2.90;1.20;;;;;;;27.59;43.09;98887.39;126608;1292;120174;-67
2023/08/03 13:12:35;;;;;;;4.50;1.30;;;;;;;27.56;42.96;98893.55;126652;1292;114909;-68
2023/08/03 13:16:08;;;;;;;;;;;;;;;;;;;;;
2023/08/03 13:19:38;;;;;;;;;;;;;;;;;;;;;
2023/08/03 13:23:12;;;;;;;;;;;;;;;;;;;;;
2023/08/03 13:27:07;;;;;;;2.30;1.00;;;;;;;27.32;42.66;98911.98;126002;1295;121068;-67
2023/08/03 13:31:09;;;;;;;8.50;1.50;;;;;;;27.27;42.84;98913.63;125749;1296;115042;-66
2023/08/03 13:35:02;;;;;;;4.90;1.20;;;;;;;27.27;42.74;98915.07;125538;1307;114993;-66
2023/08/03 13:42:46;;;;;;;2.30;1.00;;;;;;;27.48;42.34;98918.48;126276;1296;635751;-67
2023/08/03 13:46:29;;;;;;;3.40;0.90;;;;;;;27.58;42.35;98918.34;129494;1270;119250;-67
2023/08/03 13:50:32;;;;;;;2.90;0.90;;;;;;;27.73;42.52;98919.67;129333;1272;114753;-68
2023/08/03 13:53:44;;;;;;;;;;;;;;;;;;;;;
2023/08/03 13:57:28;;;;;;;;;;;;;;;27.86;41.86;98925.52;124079;1282;5670188;-66
2023/08/03 14:01:30;;;;;;;4.80;1.00;;;;;;;27.84;42.07;98927.64;128014;1291;114824;-66
2023/08/03 14:05:15;;;;;;;3.20;1.20;;;;;;;27.94;42.03;98923.46;127770;1286;114823;-66
2023/08/03 14:09:17;;;;;;;4.80;1.20;;;;;;;27.89;41.76;98931.12;127759;1295;120989;-67
2023/08/03 14:13:17;;;;;;;3.20;0.90;;;;;;;27.75;41.45;98936.85;127033;1307;114944;-66
2023/08/03 14:21:23;;;;;;;1.70;0.80;;;;;;;27.66;41.63;98945.85;126003;1308;114962;-66
2023/08/03 14:25:39;;;;;;;1.10;0.70;;;;;;;27.57;41.02;98943.83;125604;1315;116545;-66
2023/08/03 14:33:17;;;;;;;3.80;1.20;;;;;;;27.46;40.27;98937.16;125342;1318;114916;-67
2023/08/03 14:41:33;;;;;;;2.70;1.00;;;;;;;27.39;40.17;98948.40;126491;1294;635921;-66
2023/08/03 14:45:38;;;;;;;8.00;1.10;;;;;;;27.32;39.96;98956.36;129129;1269;120576;-68
2023/08/03 14:49:39;;;;;;;1.00;0.80;;;;;;;27.30;40.29;98959.55;129934;1265;114790;-66
2023/08/03 14:53:32;;;;;;;6.90;1.20;;;;;;;27.21;39.83;98956.38;125975;1263;5472189;-67
2023/08/03 15:01:37;;;;;;;3.20;1.00;;;;;;;27.13;39.34;98951.73;129313;1271;114933;-67
2023/08/03 15:05:23;;;;;;;;;;;;;;;;;;;;;
2023/08/03 15:09:26;;;;;;;4.50;0.70;;;;;;;27.13;39.23;98963.19;129266;1270;119243;-66
2023/08/03 15:13:34;;;;;;;1.20;0.60;;;;;;;27.07;39.29;98963.46;128791;1283;114914;-68
2023/08/03 15:17:08;;;;;;;5.20;1.10;;;;;;;27.01;39.01;98964.66;127944;1283;115685;-67
2023/08/03 15:21:12;;;;;;;3.10;1.20;;;;;;;26.98;39.41;98971.02;127738;1283;114889;-67
2023/08/03 15:25:02;;;;;;;;;;;;;;;;;;;;;
2023/08/03 15:28:47;;;;;;;;;;;;;;;;;;;;;
2023/08/03 15:32:49;;;;;;;3.00;1.30;;;;;;;26.78;38.77;98985.71;125071;1313;115411;-66
2023/08/03 15:36:46;;;;;;;2.00;0.80;;;;;;;26.67;38.68;98994.02;125247;1324;114982;-66
2023/08/03 15:45:15;;;;;;;5.20;0.80;;;;;;;26.56;38.58;98996.70;125925;1303;638083;-66
2023/08/03 15:49:12;;;;;;;2.70;0.90;;;;;;;26.54;38.67;98996.15;129248;1280;119906;-67
2023/08/03 15:52:50;;;;;;;1.20;0.70;;;;;;;26.59;39.14;99000.91;129538;1265;114876;-68
2023/08/03 15:56:56;;;;;;;1.80;0.70;;;;;;;26.54;38.74;98997.04;128685;1281;114951;-67
2023/08/03 16:01:03;;;;;;;1.90;1.30;;;;;;;26.43;38.79;98999.70;126314;1278;114800;-67
2023/08/03 16:05:05;;;;;;;1.60;0.90;;;;;;;26.38;38.53;99006.67;127492;1287;114734;-67
2023/08/03 16:09:06;;;;;;;1.90;1.50;;;;;;;26.32;38.62;99009.67;126192;1316;114875;-65
2023/08/03 16:12:21;;;;;;;;;;;;;;;;;;;;;
2023/08/03 16:15:22;;;;;;;2.10;0.80;;;;;;;26.24;38.41;99011.77;125224;1311;114936;-66
2023/08/03 16:18:49;;;;;;;;;;;;;;;;;;;;;
2023/08/03 16:22:52;;;;;;;2.30;0.70;;;;;;;26.27;38.63;99017.27;124907;1314;115583;-67
2023/08/03 16:31:12;;;;;;;2.90;1.00;;;;;;;26.27;38.66;99023.08;125647;1299;636105;-63
2023/08/03 16:34:42;;;;;;;;;;;;;;;;;;;;;
2023/08/03 16:38:24;;;;;;;;;;;;;;;;;;;;;
2023/08/03 16:42:18;;;;;;;1.40;0.70;;;;;;;26.10;38.94;99044.39;128528;1280;114919;-65
2023/08/03 16:45:54;;;;;;;5.50;1.40;;;;;;;26.02;38.78;99048.85;123054;1290;114929;-64
2023/08/03 16:49:41;;;;;;;;;;;;;;;;;;;;;
2023/08/03 16:53:37;;;;;;;;;;;;;;;;;;;;;
2023/08/03 16:57:39;;;;;;;4.80;1.60;;;;;;;25.64;38.90;99062.20;126100;1298;119373;-65
2023/08/03 17:01:41;;;;;;;0.70;0.70;;;;;;;25.52;39.07;99062.20;125459;1307;114981;-65
2023/08/03 17:09:41;;;;;;;;;;;;;;;;;;;;;
2023/08/03 17:13:45;;;;;;;3.10;0.60;;;;;;;25.24;39.63;99067.11;129220;1266;119441;-64
2023/08/03 17:21:22;;;;;;;2.40;0.90;;;;;;;24.86;40.07;99071.42;129005;1269;114719;-66
2023/08/03 17:25:02;;;;;;;11.70;1.20;;;;;;;24.67;40.14;99079.73;125113;1271;114811;-63
2023/08/03 17:28:48;;;;;;;2.20;1.30;;;;;;;24.50;40.20;99083.08;129021;1271;114861;-65
2023/08/03 17:32:32;;;;;;;3.80;0.80;;;;;;;24.36;40.53;99085.65;129023;1286;114815;-65
2023/08/03 17:40:24;;;;;;;6.80;1.20;;;;;;;24.06;40.82;99095.36;128173;1280;115170;-64
2023/08/03 17:44:06;;;;;;;2.80;0.90;;;;;;;23.91;41.01;99094.54;128503;1282;114848;-62
2023/08/03 17:47:53;;;;;;;3.60;1.80;;;;;;;23.76;41.45;99095.11;127705;1296;114937;-61
2023/08/03 17:51:45;;;;;;;1.80;1.10;;;;;;;23.65;41.74;99101.34;128255;1283;114916;-66
2023/08/03 17:55:52;;;;;;;;;;;;;;;;;;;;;
2023/08/03 18:00:06;;;;;;;5.40;1.20;;;;;;;23.40;42.33;99106.61;127379;1293;115247;-67
2023/08/03 18:04:10;;;;;;;2.30;0.90;;;;;;;23.28;42.51;99107.91;126582;1302;114862;-62
2023/08/03 18:08:11;;;;;;;1.70;0.90;;;;;;;23.13;42.48;99119.15;126034;1315;115136;-63
2023/08/03 18:16:06;;;;;;;1.50;1.00;;;;;;;22.92;43.07;99128.27;126244;1295;637239;-63
2023/08/03 18:20:10;;;;;;;4.20;1.10;;;;;;;22.80;43.15;99134.43;128977;1272;130233;-64
2023/08/03 18:28:00;;;;;;;2.60;1.30;;;;;;;22.53;43.55;99152.91;124413;1275;5474978;-65
2023/08/03 18:31:54;;;;;;;1.90;1.00;;;;;;;22.41;43.80;99159.22;127385;1286;114864;-64
2023/08/03 18:35:38;;;;;;;;;;;;;;;;;;;;;
2023/08/03 18:38:48;;;;;;;3.40;1.30;;;;;;;22.13;44.26;99171.87;126878;1281;129011;-65
2023/08/03 18:42:42;;;;;;;7.50;1.50;;;;;;;22.02;44.49;99178.81;127827;1282;115371;-64
2023/08/03 18:46:43;;;;;;;;;;;;;;;;;;;;;
2023/08/03 18:50:46;;;;;;;3.80;2.30;;;;;;;21.69;45.10;99184.75;125760;1305;114869;-68
2023/08/03 18:54:47;;;;;;;2.20;1.40;;;;;;;21.55;45.28;99192.85;125888;1303;114868;-64
2023/08/03 18:57:57;;;;;;;1.80;0.80;;;;;;;21.41;45.63;99203.41;124414;1313;129779;-67
2023/08/03 19:01:59;;;;;;;4.50;1.80;;;;;;;21.28;45.71;99206.08;124982;1308;115487;-68
2023/08/03 19:09:53;;;;;;;3.40;1.40;;;;;;;21.00;46.32;99228.23;125805;1298;635899;-63
2023/08/03 19:14:00;;;;;;;2.60;1.30;;;;;;;20.84;47.14;99232.56;128682;1277;128250;-64
2023/08/03 19:18:03;;;;;;;4.90;2.00;;;;;;;20.67;47.32;99239.76;128299;1281;115254;-64
2023/08/03 19:21:58;;;;;;;;;;;;;;;;;;;;;
2023/08/03 19:25:55;;;;;;;;;;;;;;;;;;;;;
2023/08/03 19:29:57;;;;;;;8.10;4.80;;;;;;;20.16;48.99;99261.56;125714;1301;114981;-64
2023/08/03 19:33:50;;;;;;;;;;;;;;;;;;;;;
2023/08/03 19:37:21;;;;;;;17.30;9.90;;;;;;;19.85;49.73;99274.19;123505;1322;116534;-66
2023/08/03 19:41:24;;;;;;;9.70;6.10;;;;;;;19.76;50.12;99280.59;123299;1332;114939;-66
2023/08/03 19:44:55;;;;;;;8.00;3.60;;;;;;;19.71;50.40;99293.27;122683;1347;114908;-66
2023/08/03 19:49:21;;;;;;;2.60;1.10;;;;;;;19.70;50.80;99297.67;125623;1307;635915;-64
2023/08/03 19:53:25;;;;;;;2.30;1.40;;;;;;;19.68;51.21;99295.31;127623;1296;128481;-65
2023/08/03 19:57:31;;;;;;;4.90;1.10;;;;;;;19.69;51.45;99299.43;126701;1292;115467;-73
2023/08/03 20:01:36;;;;;;;2.50;0.60;;;;;;;19.75;52.95;99298.61;122390;1295;6003058;-76
2023/08/03 20:14:13;;;;;;;5.00;1.30;;;;;;;19.67;51.94;99300.33;126089;1304;640132;-68
2023/08/03 20:18:16;;;;;;;3.90;1.10;;;;;;;19.55;52.02;99298.31;128210;1292;127545;-75
2023/08/03 20:22:20;;;;;;;5.00;1.30;;;;;;;19.45;52.14;99302.79;126761;1300;116438;-76
2023/08/03 20:26:23;;;;;;;4.40;1.90;;;;;;;19.34;52.36;99300.30;123171;1292;5364596;-75
2023/08/03 20:34:28;;;;;;;13.20;11.50;;;;;;;19.14;52.99;99313.90;126110;1297;114935;-66
2023/08/03 20:38:29;;;;;;;2.70;1.80;;;;;;;19.04;53.39;99310.90;125668;1305;114854;-72
2023/08/03 20:42:31;;;;;;;2.40;1.10;;;;;;;18.94;53.37;99316.45;124724;1313;130073;-71
2023/08/03 20:51:00;;;;;;;2.00;0.90;;;;;;;18.85;53.47;99316.05;125770;1304;639455;-71
2023/08/03 20:54:56;;;;;;;4.60;1.40;;;;;;;18.82;53.50;99319.78;128205;1283;127980;-68
2023/08/03 20:58:49;;;;;;;13.40;2.10;;;;;;;18.79;53.93;99333.62;128077;1284;115257;-76
2023/08/03 21:02:51;;;;;;;4.60;1.60;;;;;;;18.77;54.25;99333.83;123275;1287;5436914;-73
2023/08/03 21:06:53;;;;;;;10.50;1.60;;;;;;;18.76;54.94;99339.73;125676;1305;114955;-76
2023/08/03 21:10:54;;;;;;;5.80;1.30;;;;;;;18.76;55.70;99347.36;124939;1310;114850;-76
2023/08/03 21:14:53;;;;;;;;;;;;;;;;;;;;;
2023/08/03 21:23:10;;;;;;;;;;;;;;;;;;;;;
2023/08/03 21:27:14;;;;;;;4.10;1.80;;;;;;;18.74;58.83;99363.86;128833;1274;115510;-73
2023/08/03 21:31:17;;;;;;;4.70;2.20;;;;;;;18.72;59.55;99365.86;123153;1293;5432381;-75
2023/08/03 21:35:09;;;;;;;3.70;2.00;;;;;;;18.68;59.98;99372.86;126142;1301;116145;-75
2023/08/03 21:39:13;;;;;;;5.70;2.40;;;;;;;18.65;60.48;99373.70;125019;1305;114956;-75
2023/08/03 21:51:17;;;;;;;4.20;2.00;;;;;;;18.53;61.71;99358.84;128909;1271;127923;-66
2023/08/03 21:55:20;;;;;;;2.70;1.60;;;;;;;18.48;61.97;99372.51;128017;1299;114899;-68
2023/08/03 21:59:26;;;;;;;5.30;2.00;;;;;;;18.42;62.30;99372.77;126079;1284;5471109;-72
2023/08/03 22:03:19;;;;;;;4.80;2.20;;;;;;;18.34;62.55;99379.95;126228;1316;116152;-68
2023/08/03 22:11:27;;;;;;;3.60;2.30;;;;;;;18.25;63.08;99384.63;125664;1303;639865;-75
2023/08/03 22:15:29;;;;;;;3.80;1.90;;;;;;;18.16;63.61;99380.98;126925;1289;127919;-75
2023/08/03 22:19:25;;;;;;;6.30;2.20;;;;;;;18.10;63.96;99385.40;126233;1299;115010;-75
2023/08/03 22:23:26;;;;;;;6.90;2.00;;;;;;;18.03;64.34;99388.58;122277;1296;5544276;-74
2023/08/03 22:27:27;;;;;;;4.70;1.80;;;;;;;17.97;64.67;99395.98;125415;1308;114843;-74
2023/08/03 22:39:52;;;;;;;;;;;;;;;;;;;;;
2023/08/03 22:47:57;;;;;;;5.10;1.70;;;;;;;17.66;66.05;99410.03;122377;1294;5419347;-75
2023/08/03 22:51:59;;;;;;;6.40;2.50;;;;;;;17.60;66.18;99412.73;125197;1305;115022;-76
2023/08/03 22:55:53;;;;;;;5.70;2.40;;;;;;;17.53;66.47;99416.83;125174;1308;114945;-76
2023/08/03 22:59:24;;;;;;;4.50;2.20;;;;;;;17.48;66.72;99420.23;124453;1317;115000;-75
2023/08/03 23:03:18;;;;;;;;;;;;;;;;;;;;;
2023/08/03 23:07:01;;;;;;;;;;;;;;;;;;;;;
2023/08/03 23:11:27;;;;;;;5.80;2.40;;;;;;;17.33;67.32;99423.04;126427;1297;635810;-69
2023/08/03 23:15:29;;;;;;;7.50;2.30;;;;;;;17.24;67.63;99416.84;127933;1288;128259;-75
2023/08/03 23:19:37;;;;;;;4.70;2.40;;;;;;;17.16;68.05;99424.70;126389;1295;115308;-67
2023/08/03 23:23:38;;;;;;;3.80;2.40;;;;;;;17.10;68.42;99426.58;121998;1302;5422607;-74
2023/08/03 23:27:40;;;;;;;5.40;2.30;;;;;;;17.04;68.76;99436.48;125242;1308;114971;-69
2023/08/03 23:35:53;;;;;;;7.30;2.60;;;;;;;16.96;69.09;99434.14;125996;1311;639261;-68
2023/08/03 23:43:58;;;;;;;4.20;2.30;;;;;;;16.84;69.93;99445.64;127367;1306;115304;-66
2023/08/03 23:47:51;;;;;;;;;;;;;;;;;;;;;
2023/08/03 23:51:44;;;;;;;5.50;2.20;;;;;;;16.73;70.28;99457.80;125163;1316;115263;-70
2023/08/03 23:55:36;;;;;;;6.60;4.40;;;;;;;16.68;70.88;99469.77;125101;1310;114812;-71
